createdAt,value
2018-04-02T00:00:30.872Z,1.8
2018-04-02T00:05:03.168Z,1.8
2018-04-02T00:10:10.588Z,1.8
2018-04-02T00:15:10.932Z,1.9
2018-04-02T00:20:05.858Z,1.9
2018-04-02T00:25:07.642Z,1.9
2018-04-02T00:30:15.628Z,2
2018-04-02T00:35:18.386Z,2
2018-04-02T00:40:05.759Z,2
2018-04-02T00:45:07.572Z,1.9
2018-04-02T00:50:05.440Z,1.8
2018-04-02T00:55:08.226Z,1.8
2018-04-02T01:00:05.218Z,1.7
2018-04-02T01:05:10.392Z,1.7
2018-04-02T01:10:08.261Z,1.6
2018-04-02T01:15:02.489Z,1.7
2018-04-02T01:20:05.386Z,1.6
2018-04-02T01:25:10.722Z,1.6
2018-04-02T01:30:05.569Z,1.6
2018-04-02T01:35:05.856Z,1.5
2018-04-02T01:40:07.871Z,1.5
2018-04-02T01:45:02.967Z,1.5
2018-04-02T01:50:05.871Z,1.4
2018-04-02T01:55:02.528Z,1.4
2018-04-02T02:00:10.474Z,1.2
2018-04-02T02:05:15.760Z,1
2018-04-02T02:15:17.966Z,0.8
2018-04-02T02:20:08.438Z,0.8
2018-04-02T02:25:32.961Z,0.7
2018-04-02T02:30:18.480Z,0.6
2018-04-02T02:35:17.793Z,0.6
2018-04-02T02:40:05.233Z,0.6
2018-04-02T02:45:02.858Z,0.6
2018-04-02T02:50:05.708Z,0.5
2018-04-02T02:55:10.046Z,0.5
2018-04-02T03:00:03.413Z,0.5
2018-04-02T03:05:02.668Z,0.5
2018-04-02T03:10:17.746Z,0.3
2018-04-02T03:15:02.767Z,0.3
2018-04-02T03:20:05.829Z,0.3
2018-04-02T03:30:10.161Z,0.1
2018-04-02T03:35:05.531Z,0.1
2018-04-02T03:40:18.487Z,0.1
2018-04-02T03:45:05.099Z,0.1
2018-04-02T03:50:07.510Z,0.1
2018-04-02T03:55:02.666Z,0.1
2018-04-02T04:00:02.963Z,0.1
2018-04-02T04:05:05.716Z,0.1
2018-04-02T04:10:07.582Z,0
2018-04-02T04:15:02.729Z,0
2018-04-02T04:20:08.239Z,-0.1
2018-04-02T04:25:05.845Z,-0.1
2018-04-02T04:30:03.179Z,-0.1
2018-04-02T04:35:02.403Z,-0.1
2018-04-02T04:40:03.154Z,-0.1
2018-04-02T04:45:05.168Z,-0.1
2018-04-02T04:50:07.788Z,-0.2
2018-04-02T04:55:33.331Z,-0.2
2018-04-02T05:00:10.158Z,-0.2
2018-04-02T05:05:05.473Z,-0.2
2018-04-02T05:10:03.269Z,-0.3
2018-04-02T05:15:20.288Z,-0.2
2018-04-02T05:20:27.992Z,-0.2
2018-04-02T05:25:03.287Z,-0.2
2018-04-02T05:30:05.154Z,-0.1
2018-04-02T05:35:05.355Z,-0.1
2018-04-02T05:40:08.230Z,-0.1
2018-04-02T05:45:15.073Z,0
2018-04-02T05:50:25.262Z,0
2018-04-02T05:55:05.148Z,0.1
2018-04-02T06:00:07.509Z,0.2
2018-04-02T06:05:07.816Z,0.3
2018-04-02T06:10:05.144Z,0.4
2018-04-02T06:15:02.887Z,0.4
2018-04-02T06:20:08.355Z,0.6
2018-04-02T06:25:17.841Z,0.7
2018-04-02T06:30:03.138Z,0.7
2018-04-02T06:35:35.949Z,0.7
2018-04-02T06:40:02.708Z,0.7
2018-04-02T06:45:13.162Z,0.7
2018-04-02T06:50:17.708Z,0.8
2018-04-02T06:55:02.876Z,0.8
2018-04-02T07:00:08.213Z,1
2018-04-02T07:05:02.478Z,1
2018-04-02T07:10:08.351Z,1.2
2018-04-02T07:15:10.091Z,1.2
2018-04-02T07:20:17.690Z,1.3
2018-04-02T07:25:05.315Z,1.4
2018-04-02T07:30:07.606Z,1.5
2018-04-02T07:35:12.910Z,1.6
2018-04-02T07:40:05.195Z,1.7
2018-04-02T07:45:18.262Z,1.8
2018-04-02T07:50:05.103Z,1.9
2018-04-02T07:55:10.497Z,2.1
2018-04-02T08:00:07.832Z,2.2
2018-04-02T08:05:03.367Z,2.2
2018-04-02T08:10:03.157Z,2.3
2018-04-02T08:15:10.094Z,2.5
2018-04-02T08:20:07.577Z,2.5
2018-04-02T08:25:07.861Z,2.7
2018-04-02T08:30:21.050Z,2.8
2018-04-02T08:35:05.086Z,3
2018-04-02T08:40:23.072Z,3
2018-04-02T08:45:05.777Z,3.3
2018-04-02T08:50:05.587Z,3.5
2018-04-02T08:55:05.844Z,4
2018-04-02T09:00:03.199Z,4
2018-04-02T09:05:22.807Z,4.5
2018-04-02T09:10:02.624Z,4.5
2018-04-02T09:15:03.110Z,4.7
2018-04-02T09:20:35.411Z,4.4
2018-04-02T09:25:07.803Z,4.3
2018-04-02T09:30:13.365Z,4.5
2018-04-02T09:35:15.062Z,4.7
2018-04-02T09:40:02.836Z,4.6
2018-04-02T09:45:08.262Z,4.7
2018-04-02T09:50:10.143Z,4.8
2018-04-02T10:00:03.340Z,5.1
2018-04-02T10:05:10.185Z,5.4
2018-04-02T10:10:08.303Z,5.4
2018-04-02T10:15:02.873Z,5.4
2018-04-02T10:20:03.416Z,5.4
2018-04-02T10:25:10.169Z,5.5
2018-04-02T10:30:15.410Z,5.7
2018-04-02T10:35:18.207Z,5.8
2018-04-02T10:40:08.044Z,6.1
2018-04-02T10:45:13.463Z,6.3
2018-04-02T10:50:05.462Z,6.3
2018-04-02T10:55:15.920Z,6.4
2018-04-02T11:00:05.776Z,6.4
2018-04-02T11:05:05.095Z,6.4
2018-04-02T11:10:02.905Z,6.4
2018-04-02T11:15:08.305Z,6.7
2018-04-02T11:20:02.773Z,6.7
2018-04-02T11:25:05.796Z,6.9
2018-04-02T11:30:03.223Z,6.9
2018-04-02T11:35:05.013Z,7.2
2018-04-02T11:40:02.840Z,7.1
2018-04-02T11:45:08.174Z,7.3
2018-04-02T11:50:05.002Z,7.5
2018-04-02T11:55:17.989Z,7.5
2018-04-02T12:00:13.441Z,7.5
2018-04-02T12:05:07.716Z,8
2018-04-02T12:10:17.688Z,8.2
2018-04-02T12:15:17.981Z,8.2
2018-04-02T12:20:26.209Z,8.4
2018-04-02T12:25:02.645Z,8.4
2018-04-02T12:30:10.594Z,8.4
2018-04-02T12:35:04.922Z,8.6
2018-04-02T12:40:07.835Z,8.6
2018-04-02T12:45:08.369Z,9.3
2018-04-02T12:50:05.930Z,11.1
2018-04-02T12:55:17.879Z,12.7
2018-04-02T13:00:03.184Z,12.7
2018-04-02T13:05:02.601Z,13.6
2018-04-02T13:10:05.014Z,14.1
2018-04-02T13:15:05.364Z,13.6
2018-04-02T13:20:02.841Z,13.6
2018-04-02T13:25:10.789Z,12.3
2018-04-02T13:30:08.184Z,13.1
2018-04-02T13:35:05.058Z,13.7
2018-04-02T13:40:18.103Z,14.2
2018-04-02T13:45:05.777Z,12.9
2018-04-02T13:50:03.124Z,12.9
2018-04-02T13:55:15.245Z,14.2
2018-04-02T14:00:02.619Z,14.3
2018-04-02T14:10:05.291Z,17.9
2018-04-02T14:15:03.193Z,17.8
2018-04-02T14:20:02.985Z,17.8
2018-04-02T14:25:17.555Z,15.5
2018-04-02T14:30:08.307Z,15.2
2018-04-02T14:35:05.155Z,17.1
2018-04-02T14:40:16.020Z,17.3
2018-04-02T14:45:05.424Z,18.6
2018-04-02T14:50:30.946Z,19.5
2018-04-02T14:55:10.205Z,20.3
2018-04-02T15:00:05.608Z,21
2018-04-02T15:05:02.677Z,21
2018-04-02T15:10:32.939Z,16.7
2018-04-02T15:15:03.324Z,16.7
2018-04-02T15:20:10.447Z,15.7
2018-04-02T15:25:05.833Z,15.2
2018-04-02T15:30:05.775Z,15.5
2018-04-02T15:35:07.710Z,16.7
2018-04-02T15:40:02.905Z,16.7
2018-04-02T15:45:02.395Z,15.8
2018-04-02T15:50:20.562Z,14.3
2018-04-02T15:55:20.892Z,13.6
2018-04-02T16:00:03.288Z,13.5
2018-04-02T16:05:17.914Z,13.1
2018-04-02T16:10:07.863Z,12.7
2018-04-02T16:15:08.306Z,12.3
2018-04-02T16:20:03.008Z,12.4
2018-04-02T16:25:03.357Z,12.1
2018-04-02T16:30:02.749Z,11.9
2018-04-02T16:35:03.142Z,11.8
2018-04-02T16:40:05.600Z,11.4
2018-04-02T16:45:07.513Z,11.1
2018-04-02T16:50:02.921Z,11.1
2018-04-02T16:55:03.270Z,11
2018-04-02T17:00:05.163Z,10.7
2018-04-02T17:05:03.037Z,10.7
2018-04-02T17:10:12.981Z,10.4
2018-04-02T17:15:08.260Z,10.3
2018-04-02T17:20:02.824Z,10.3
2018-04-02T17:30:02.416Z,10.1
2018-04-02T17:35:12.915Z,9.9
2018-04-02T17:40:33.205Z,9.8
2018-04-02T17:45:02.593Z,9.8
2018-04-02T17:50:02.983Z,9.7
2018-04-02T17:55:02.520Z,9.6
2018-04-02T18:00:05.455Z,9.4
2018-04-02T18:05:08.363Z,9.4
2018-04-02T18:10:28.525Z,9.3
2018-04-02T18:15:05.465Z,9.2
2018-04-02T18:20:28.173Z,9.1
2018-04-02T18:25:20.251Z,9.1
2018-04-02T18:30:17.872Z,9.1
2018-04-02T18:35:10.612Z,9
2018-04-02T18:40:02.586Z,9
2018-04-02T18:45:02.957Z,9
2018-04-02T18:50:23.598Z,8.8
2018-04-02T18:55:02.712Z,8.8
2018-04-02T19:05:08.373Z,8.6
2018-04-02T19:10:03.225Z,8.6
2018-04-02T19:15:10.189Z,8.6
2018-04-02T19:20:05.152Z,8.6
2018-04-02T19:25:10.741Z,8.6
2018-04-02T19:30:08.144Z,8.5
2018-04-02T19:35:10.138Z,8.4
2018-04-02T19:40:08.026Z,8.4
2018-04-02T19:45:02.915Z,8.4
2018-04-02T19:50:03.342Z,8.4
2018-04-02T19:55:05.204Z,8.3
2018-04-02T20:00:05.086Z,8.2
2018-04-02T20:05:08.035Z,8.2
2018-04-02T20:10:07.971Z,8.1
2018-04-02T20:15:08.351Z,8.1
2018-04-02T20:20:07.884Z,8
2018-04-02T20:25:03.294Z,8
2018-04-02T20:30:05.858Z,7.9
2018-04-02T20:35:02.621Z,7.9
2018-04-02T20:40:07.608Z,7.8
2018-04-02T20:45:03.016Z,7.8
2018-04-02T20:50:15.037Z,7.7
2018-04-02T20:55:05.430Z,7.7
2018-04-02T21:00:02.780Z,7.7
2018-04-02T21:05:15.795Z,7.6
2018-04-02T21:10:02.617Z,7.6
2018-04-02T21:15:03.012Z,7.6
2018-04-02T21:20:25.245Z,7.5
2018-04-02T21:25:02.620Z,7.5
2018-04-02T21:30:08.044Z,7.4
2018-04-02T21:35:09.988Z,7.4
2018-04-02T21:40:20.578Z,7.4
2018-04-02T21:45:20.922Z,7.4
2018-04-02T21:50:08.381Z,7.4
2018-04-02T21:55:05.226Z,7.5
2018-04-02T22:00:10.198Z,7.5
2018-04-02T22:05:02.996Z,7.5
2018-04-02T22:10:07.872Z,7.5
2018-04-02T22:15:18.305Z,7.5
2018-04-02T22:20:02.725Z,7.5
2018-04-02T22:25:10.719Z,7.4
2018-04-02T22:30:10.593Z,7.4
2018-04-02T22:35:13.453Z,7.3
2018-04-02T22:40:08.310Z,7.2
2018-04-02T22:45:02.537Z,7.2
2018-04-02T22:50:02.876Z,7.3
2018-04-02T22:55:15.860Z,7.2
2018-04-02T23:00:13.346Z,7.1
2018-04-02T23:05:17.716Z,7.1
2018-04-02T23:10:02.543Z,7
2018-04-02T23:15:05.504Z,7.1
2018-04-02T23:20:05.615Z,7.1
2018-04-02T23:25:05.752Z,7.1
2018-04-02T23:30:35.919Z,7.1
2018-04-02T23:35:10.884Z,7.1
2018-04-02T23:40:10.313Z,7
2018-04-02T23:45:05.592Z,7.1
2018-04-02T23:50:02.929Z,7
2018-04-02T23:55:10.860Z,7
